AUA729 LOWW-LQSA
Flight info
| Callsign | AUA729 |
|---|---|
| Flight time | 0h 47m |
| Altitude | 33000 |
| Route | STEIN DCT NOHAT DCT KOPRY DCT LURID DCT BOSNA BOSN1N |
| Aircraft | A320/M-SDE3FGHIRWY/LB1 |
Departure
| Time | 2026-05-04 09:37 |
|---|---|
| Airport | Vienna International Airport (LOWW) |
Arrival
| Time | 2026-05-04 10:25 |
|---|---|
| Airport | Sarajevo International Airport (LQSA) |
| Time | Latitude | Longitude | Altitude | Speed | Heading |
|---|---|---|---|---|---|
| 2026-05-04 09:09 | 48.11862 | 16.56876 | 620 ft | 0 kts | 206° |
| 2026-05-04 09:27 | 48.11867 | 16.56880 | 608 ft | 2 kts | 205° |
| 2026-05-04 09:27 | 48.11886 | 16.56892 | 614 ft | 3 kts | 199° |
| 2026-05-04 09:27 | 48.11905 | 16.56901 | 611 ft | 3 kts | 187° |
| 2026-05-04 09:28 | 48.11924 | 16.56902 | 615 ft | 3 kts | 160° |
| 2026-05-04 09:28 | 48.11937 | 16.56890 | 624 ft | 1 kts | 117° |
| 2026-05-04 09:28 | 48.11939 | 16.56883 | 624 ft | 0 kts | 116° |
| 2026-05-04 09:31 | 48.11935 | 16.56897 | 624 ft | 5 kts | 116° |
| 2026-05-04 09:31 | 48.11908 | 16.56979 | 609 ft | 10 kts | 116° |
| 2026-05-04 09:31 | 48.11874 | 16.57082 | 614 ft | 12 kts | 116° |
| 2026-05-04 09:32 | 48.11852 | 16.57211 | 609 ft | 12 kts | 103° |
| 2026-05-04 09:32 | 48.11860 | 16.57315 | 613 ft | 11 kts | 13° |
| 2026-05-04 09:34 | 48.11996 | 16.57585 | 610 ft | 0 kts | 104° |
| 2026-05-04 09:35 | 48.11996 | 16.57589 | 608 ft | 3 kts | 104° |
| 2026-05-04 09:35 | 48.11982 | 16.57668 | 609 ft | 12 kts | 104° |
| 2026-05-04 09:35 | 48.11951 | 16.57792 | 616 ft | 14 kts | 124° |
| 2026-05-04 09:35 | 48.11792 | 16.57898 | 614 ft | 51 kts | 164° |
| 2026-05-04 09:37 | 48.04437 | 16.61050 | 3511 ft | 221 kts | 166° |
| 2026-05-04 09:37 | 48.02876 | 16.61692 | 4073 ft | 243 kts | 167° |
| 2026-05-04 09:38 | 48.01199 | 16.62385 | 4854 ft | 256 kts | 167° |
| 2026-05-04 09:38 | 47.99456 | 16.63112 | 5685 ft | 265 kts | 166° |
| 2026-05-04 09:38 | 47.97622 | 16.63472 | 6605 ft | 268 kts | 181° |
| 2026-05-04 09:38 | 47.95761 | 16.63394 | 7519 ft | 267 kts | 184° |
| 2026-05-04 09:39 | 47.93906 | 16.63249 | 8404 ft | 269 kts | 184° |
| 2026-05-04 09:39 | 47.92019 | 16.63082 | 9189 ft | 274 kts | 184° |
| 2026-05-04 09:39 | 47.90101 | 16.62926 | 10035 ft | 278 kts | 184° |
| 2026-05-04 09:39 | 47.88123 | 16.62786 | 10523 ft | 294 kts | 183° |
| 2026-05-04 09:40 | 47.85995 | 16.62647 | 10787 ft | 317 kts | 183° |
| 2026-05-04 09:40 | 47.83752 | 16.62500 | 11378 ft | 326 kts | 184° |
| 2026-05-04 09:40 | 47.81473 | 16.62353 | 12147 ft | 330 kts | 184° |
| 2026-05-04 09:40 | 47.79162 | 16.62212 | 12902 ft | 334 kts | 183° |
| 2026-05-04 09:41 | 47.76829 | 16.62073 | 13647 ft | 338 kts | 183° |
| 2026-05-04 09:42 | 47.60601 | 16.61060 | 18018 ft | 361 kts | 184° |
| 2026-05-04 09:43 | 47.58075 | 16.60904 | 18617 ft | 365 kts | 184° |
| 2026-05-04 09:43 | 47.55527 | 16.60748 | 19131 ft | 369 kts | 184° |
| 2026-05-04 09:43 | 47.52954 | 16.60590 | 19690 ft | 372 kts | 184° |
| 2026-05-04 09:43 | 47.50361 | 16.60430 | 20234 ft | 375 kts | 183° |
| 2026-05-04 09:44 | 47.47733 | 16.60269 | 20764 ft | 380 kts | 183° |
| 2026-05-04 09:44 | 47.45079 | 16.60110 | 21292 ft | 383 kts | 183° |
| 2026-05-04 09:44 | 47.42399 | 16.59961 | 21813 ft | 388 kts | 182° |
| 2026-05-04 09:46 | 47.22806 | 16.60868 | 24842 ft | 416 kts | 179° |
| 2026-05-04 09:46 | 47.19903 | 16.60989 | 25213 ft | 419 kts | 179° |
| 2026-05-04 09:46 | 47.16972 | 16.61109 | 25586 ft | 422 kts | 179° |
| 2026-05-04 09:47 | 47.14024 | 16.61227 | 25936 ft | 426 kts | 179° |
| 2026-05-04 09:47 | 47.11055 | 16.61348 | 26297 ft | 429 kts | 179° |
| 2026-05-04 09:49 | 46.89721 | 16.62274 | 28705 ft | 448 kts | 180° |
| 2026-05-04 09:49 | 46.86599 | 16.62401 | 29031 ft | 450 kts | 179° |
| 2026-05-04 09:49 | 46.83462 | 16.62594 | 29332 ft | 453 kts | 175° |
| 2026-05-04 09:51 | 46.65377 | 16.72002 | 30899 ft | 468 kts | 159° |
| 2026-05-04 09:51 | 46.62357 | 16.73785 | 31112 ft | 469 kts | 159° |
| 2026-05-04 09:51 | 46.59330 | 16.75572 | 31399 ft | 469 kts | 159° |
| 2026-05-04 09:51 | 46.56309 | 16.77354 | 31701 ft | 468 kts | 159° |
| 2026-05-04 09:52 | 46.53288 | 16.79135 | 32026 ft | 468 kts | 159° |
| 2026-05-04 09:52 | 46.50274 | 16.80911 | 32328 ft | 467 kts | 159° |
| 2026-05-04 09:52 | 46.47262 | 16.82682 | 32634 ft | 467 kts | 159° |
| 2026-05-04 09:52 | 46.44255 | 16.84448 | 32930 ft | 466 kts | 159° |
| 2026-05-04 09:53 | 46.41244 | 16.86212 | 33101 ft | 466 kts | 159° |
| 2026-05-04 09:53 | 46.35314 | 16.89686 | 33133 ft | 457 kts | 159° |
| 2026-05-04 09:54 | 46.29424 | 16.93124 | 33131 ft | 456 kts | 159° |
| 2026-05-04 09:54 | 46.23519 | 16.96462 | 33133 ft | 456 kts | 163° |
| 2026-05-04 09:55 | 46.17416 | 16.98941 | 33137 ft | 456 kts | 165° |
| 2026-05-04 09:55 | 46.11302 | 17.01393 | 33131 ft | 456 kts | 165° |
| 2026-05-04 09:56 | 46.05188 | 17.03839 | 33132 ft | 456 kts | 165° |
| 2026-05-04 09:56 | 45.99077 | 17.06289 | 33135 ft | 456 kts | 165° |
| 2026-05-04 09:57 | 45.92957 | 17.08736 | 33128 ft | 456 kts | 165° |
| 2026-05-04 09:57 | 45.86839 | 17.11173 | 33129 ft | 456 kts | 165° |
| 2026-05-04 09:58 | 45.80713 | 17.13601 | 33130 ft | 457 kts | 165° |
| 2026-05-04 09:58 | 45.74578 | 17.16022 | 33128 ft | 457 kts | 165° |
| 2026-05-04 10:00 | 45.50025 | 17.25713 | 32996 ft | 460 kts | 165° |
| 2026-05-04 10:02 | 45.28691 | 17.34046 | 30191 ft | 446 kts | 165° |
| 2026-05-04 10:04 | 45.08323 | 17.42218 | 27129 ft | 423 kts | 161° |
| 2026-05-04 10:04 | 45.05555 | 17.43574 | 26723 ft | 420 kts | 160° |
| 2026-05-04 10:04 | 45.02812 | 17.44951 | 26312 ft | 417 kts | 160° |
| 2026-05-04 10:04 | 45.00090 | 17.46306 | 25921 ft | 414 kts | 160° |
| 2026-05-04 10:05 | 44.97379 | 17.47633 | 25521 ft | 411 kts | 160° |
| 2026-05-04 10:05 | 44.94682 | 17.48931 | 25138 ft | 408 kts | 161° |
| 2026-05-04 10:05 | 44.92005 | 17.50203 | 24761 ft | 405 kts | 161° |
| 2026-05-04 10:05 | 44.89346 | 17.51454 | 24385 ft | 402 kts | 161° |
| 2026-05-04 10:06 | 44.86701 | 17.52692 | 24014 ft | 399 kts | 161° |
| 2026-05-04 10:06 | 44.84077 | 17.53921 | 23636 ft | 396 kts | 161° |
| 2026-05-04 10:06 | 44.81469 | 17.55146 | 23194 ft | 393 kts | 161° |
| 2026-05-04 10:08 | 44.66233 | 17.62340 | 20689 ft | 377 kts | 160° |
| 2026-05-04 10:08 | 44.63754 | 17.63500 | 20293 ft | 374 kts | 160° |
| 2026-05-04 10:08 | 44.61294 | 17.64653 | 19900 ft | 372 kts | 160° |
| 2026-05-04 10:08 | 44.58849 | 17.65801 | 19511 ft | 369 kts | 160° |
| 2026-05-04 10:09 | 44.56420 | 17.66937 | 19127 ft | 367 kts | 160° |
| 2026-05-04 10:09 | 44.54003 | 17.68066 | 18748 ft | 365 kts | 160° |
| 2026-05-04 10:09 | 44.51600 | 17.69187 | 18365 ft | 363 kts | 160° |
| 2026-05-04 10:09 | 44.49213 | 17.70300 | 17934 ft | 360 kts | 160° |
| 2026-05-04 10:10 | 44.46840 | 17.71407 | 17502 ft | 358 kts | 160° |
| 2026-05-04 10:10 | 44.44484 | 17.72505 | 17092 ft | 356 kts | 160° |
| 2026-05-04 10:10 | 44.42137 | 17.73598 | 16681 ft | 355 kts | 160° |
| 2026-05-04 10:10 | 44.39801 | 17.74685 | 16271 ft | 353 kts | 160° |
| 2026-05-04 10:11 | 44.37504 | 17.75862 | 15863 ft | 350 kts | 154° |
| 2026-05-04 10:11 | 44.35401 | 17.77530 | 15467 ft | 346 kts | 143° |
| 2026-05-04 10:11 | 44.33432 | 17.79441 | 15081 ft | 344 kts | 143° |
| 2026-05-04 10:11 | 44.31460 | 17.81345 | 14694 ft | 344 kts | 143° |
| 2026-05-04 10:12 | 44.29496 | 17.83240 | 14304 ft | 343 kts | 143° |
| 2026-05-04 10:12 | 44.27534 | 17.85125 | 13895 ft | 342 kts | 143° |
| 2026-05-04 10:12 | 44.25576 | 17.87001 | 13444 ft | 340 kts | 143° |
| 2026-05-04 10:12 | 44.23628 | 17.88867 | 13001 ft | 339 kts | 143° |
| 2026-05-04 10:13 | 44.21689 | 17.90718 | 12563 ft | 337 kts | 144° |
| 2026-05-04 10:13 | 44.19755 | 17.92561 | 12132 ft | 336 kts | 144° |
| 2026-05-04 10:13 | 44.17832 | 17.94392 | 11706 ft | 334 kts | 144° |
| 2026-05-04 10:13 | 44.15921 | 17.96211 | 11288 ft | 332 kts | 144° |
| 2026-05-04 10:14 | 44.14020 | 17.98020 | 10934 ft | 328 kts | 144° |
| 2026-05-04 10:14 | 44.12171 | 17.99819 | 10688 ft | 320 kts | 142° |
| 2026-05-04 10:16 | 44.00345 | 18.10064 | 9121 ft | 280 kts | 191° |
| 2026-05-04 10:16 | 43.98551 | 18.09077 | 8763 ft | 277 kts | 214° |
| 2026-05-04 10:16 | 43.97125 | 18.07389 | 8399 ft | 264 kts | 233° |
| 2026-05-04 10:16 | 43.96473 | 18.05115 | 8059 ft | 253 kts | 269° |
| 2026-05-04 10:17 | 43.96498 | 18.02711 | 7703 ft | 247 kts | 267° |
| 2026-05-04 10:17 | 43.96081 | 18.00435 | 7359 ft | 244 kts | 243° |
| 2026-05-04 10:19 | 43.88962 | 18.04174 | 5238 ft | 210 kts | 91° |
| 2026-05-04 10:19 | 43.88905 | 18.06179 | 4971 ft | 208 kts | 91° |
| 2026-05-04 10:19 | 43.88842 | 18.08178 | 4693 ft | 206 kts | 91° |
| 2026-05-04 10:19 | 43.88780 | 18.10105 | 4476 ft | 195 kts | 91° |
| 2026-05-04 10:20 | 43.88740 | 18.11353 | 4292 ft | 188 kts | 91° |
| 2026-05-04 10:20 | 43.88684 | 18.13070 | 4199 ft | 169 kts | 91° |
| 2026-05-04 10:20 | 43.88635 | 18.14624 | 4218 ft | 155 kts | 91° |
| 2026-05-04 10:20 | 43.88585 | 18.16103 | 4213 ft | 152 kts | 93° |
| 2026-05-04 10:21 | 43.88241 | 18.17492 | 4079 ft | 153 kts | 113° |
| 2026-05-04 10:21 | 43.87772 | 18.18843 | 3871 ft | 157 kts | 114° |
| 2026-05-04 10:21 | 43.87282 | 18.20200 | 3640 ft | 157 kts | 115° |
| 2026-05-04 10:21 | 43.86791 | 18.21531 | 3413 ft | 153 kts | 116° |
| 2026-05-04 10:22 | 43.85809 | 18.24175 | 2953 ft | 152 kts | 116° |
| 2026-05-04 10:22 | 43.85329 | 18.25461 | 2769 ft | 148 kts | 116° |
| 2026-05-04 10:22 | 43.84851 | 18.26739 | 2531 ft | 148 kts | 115° |
| 2026-05-04 10:23 | 43.84377 | 18.28009 | 2344 ft | 148 kts | 115° |
| 2026-05-04 10:23 | 43.83904 | 18.29279 | 2120 ft | 148 kts | 116° |
| 2026-05-04 10:25 | 43.82348 | 18.33673 | 1679 ft | 5 kts | 345° |
| 2026-05-04 10:25 | 43.82375 | 18.33662 | 1676 ft | 4 kts | 345° |
| 2026-05-04 10:25 | 43.82395 | 18.33655 | 1679 ft | 2 kts | 345° |
| 2026-05-04 10:25 | 43.82412 | 18.33649 | 1672 ft | 5 kts | 345° |
| 2026-05-04 10:26 | 43.82447 | 18.33647 | 1672 ft | 6 kts | 10° |
| 2026-05-04 10:26 | 43.82481 | 18.33669 | 1677 ft | 5 kts | 27° |
| 2026-05-04 10:26 | 43.82503 | 18.33685 | 1672 ft | 2 kts | 27° |
| 2026-05-04 10:26 | 43.82516 | 18.33694 | 1668 ft | 1 kts | 27° |
| 2026-05-04 10:27 | 43.82519 | 18.33695 | 1668 ft | 0 kts | 27° |